createdAt,value
2022-09-24T00:02:47.113Z,11.89
2022-09-24T00:07:48.767Z,12.00
2022-09-24T00:12:52.081Z,11.94
2022-09-24T00:17:53.597Z,11.90
2022-09-24T00:22:55.119Z,11.84
2022-09-24T00:27:56.636Z,11.92
2022-09-24T00:32:58.156Z,11.93
2022-09-24T00:37:59.792Z,11.77
2022-09-24T00:43:01.666Z,11.92
2022-09-24T00:48:03.230Z,11.69
2022-09-24T00:53:10.981Z,11.51
2022-09-24T00:58:13.315Z,11.61
2022-09-24T01:03:18.909Z,11.33
2022-09-24T01:08:21.139Z,11.42
2022-09-24T01:13:49.856Z,11.50
2022-09-24T01:19:09.269Z,11.37
2022-09-24T01:24:49.332Z,11.38
2022-09-24T01:30:08.284Z,11.29
2022-09-24T01:35:16.396Z,11.39
2022-09-24T01:40:19.066Z,11.56
2022-09-24T01:45:21.383Z,11.54
2022-09-24T01:50:24.694Z,11.43
2022-09-24T01:55:28.973Z,11.39
2022-09-24T02:00:30.582Z,11.49
2022-09-24T02:05:39.629Z,11.40
2022-09-24T02:10:48.195Z,11.29
2022-09-24T02:15:51.084Z,11.42
2022-09-24T02:20:53.635Z,11.38
2022-09-24T02:26:02.423Z,11.31
2022-09-24T02:31:14.005Z,11.38
2022-09-24T02:36:24.890Z,11.32
2022-09-24T02:41:27.170Z,11.34
2022-09-24T02:46:28.935Z,11.11
2022-09-24T02:51:30.537Z,10.93
2022-09-24T02:56:32.198Z,11.15
2022-09-24T03:01:34.460Z,11.06
2022-09-24T03:06:36.864Z,10.98
2022-09-24T03:11:38.589Z,11.22
2022-09-24T03:16:40.119Z,10.92
2022-09-24T03:21:41.679Z,11.10
2022-09-24T03:26:43.182Z,11.15
2022-09-24T03:31:44.789Z,11.15
2022-09-24T03:36:47.453Z,10.93
2022-09-24T03:41:48.990Z,11.13
2022-09-24T03:46:50.563Z,11.08
2022-09-24T03:51:52.135Z,10.91
2022-09-24T03:56:53.649Z,10.94
2022-09-24T04:01:55.333Z,11.01
2022-09-24T04:06:57.172Z,10.77
2022-09-24T04:11:59.153Z,10.80
2022-09-24T04:17:00.773Z,10.72
2022-09-24T04:22:02.374Z,10.81
2022-09-24T04:27:04.094Z,10.63
2022-09-24T04:32:05.615Z,10.57
2022-09-24T04:37:07.185Z,10.71
2022-09-24T04:42:08.719Z,10.83
2022-09-24T04:47:11.472Z,10.73
2022-09-24T04:52:16.410Z,10.86
2022-09-24T04:57:18.002Z,10.50
2022-09-24T05:02:19.677Z,10.41
2022-09-24T05:07:21.274Z,10.41
2022-09-24T05:12:22.814Z,10.58
2022-09-24T05:17:24.421Z,10.69
2022-09-24T05:22:30.162Z,10.87
2022-09-24T05:27:31.754Z,10.53
2022-09-24T05:32:34.033Z,10.96
2022-09-24T05:37:36.652Z,11.01
2022-09-24T05:42:38.185Z,11.13
2022-09-24T05:47:39.707Z,11.05
2022-09-24T05:52:41.318Z,10.83
2022-09-24T05:57:42.887Z,11.05
2022-09-24T06:02:44.462Z,10.97
2022-09-24T06:07:46.084Z,11.29
2022-09-24T06:12:47.828Z,11.32
2022-09-24T06:17:49.354Z,11.10
2022-09-24T06:22:50.921Z,11.15
2022-09-24T06:28:00.495Z,11.14
2022-09-24T06:33:07.217Z,11.31
2022-09-24T06:38:11.009Z,11.33
2022-09-24T06:43:13.541Z,11.51
2022-09-24T06:48:15.160Z,11.67
2022-09-24T06:53:16.734Z,11.98
2022-09-24T06:58:22.406Z,11.99
2022-09-24T07:03:24.020Z,12.07
2022-09-24T07:08:25.644Z,12.21
2022-09-24T07:13:27.250Z,12.42
2022-09-24T07:18:28.899Z,12.53
2022-09-24T07:23:30.415Z,12.76
2022-09-24T07:28:32.115Z,12.86
2022-09-24T07:33:33.721Z,13.02
2022-09-24T07:38:36.425Z,13.06
2022-09-24T07:43:38.582Z,13.20
2022-09-24T07:48:40.133Z,13.33
2022-09-24T07:53:41.647Z,13.47
2022-09-24T07:58:43.445Z,13.50
2022-09-24T08:03:46.410Z,13.64
2022-09-24T08:08:52.999Z,13.69
2022-09-24T08:13:55.964Z,13.74
2022-09-24T08:18:57.455Z,13.85
2022-09-24T08:23:58.956Z,14.05
2022-09-24T08:29:00.453Z,14.11
2022-09-24T08:34:01.990Z,14.19
2022-09-24T08:39:03.606Z,14.28
2022-09-24T08:44:12.289Z,14.24
2022-09-24T08:49:18.523Z,14.24
2022-09-24T08:54:20.882Z,14.33
2022-09-24T08:59:33.095Z,14.40
2022-09-24T09:04:57.909Z,14.49
2022-09-24T09:10:05.888Z,14.52
2022-09-24T09:15:19.644Z,14.54
2022-09-24T09:20:26.442Z,14.56
2022-09-24T09:25:31.561Z,14.74
2022-09-24T09:30:53.707Z,14.86
2022-09-24T09:36:12.327Z,14.99
2022-09-24T09:41:54.336Z,15.15
2022-09-24T09:47:25.264Z,15.23
2022-09-24T09:52:28.689Z,15.32
2022-09-24T09:57:30.316Z,15.41
2022-09-24T10:02:35.339Z,15.44
2022-09-24T10:07:44.956Z,15.61
2022-09-24T10:12:46.749Z,15.67
2022-09-24T10:17:50.523Z,15.81
2022-09-24T10:22:54.997Z,15.82
2022-09-24T10:28:20.197Z,15.81
2022-09-24T10:33:21.877Z,15.81
2022-09-24T10:38:24.852Z,15.94
2022-09-24T10:43:26.387Z,15.84
2022-09-24T10:48:35.961Z,16.07
2022-09-24T10:54:18.889Z,16.07
2022-09-24T10:59:42.415Z,16.29
2022-09-24T11:05:00.785Z,16.21
2022-09-24T11:10:20.336Z,16.19
2022-09-24T11:15:53.390Z,16.15
2022-09-24T11:21:28.598Z,16.14
2022-09-24T11:26:54.219Z,16.39
2022-09-24T11:32:06.846Z,16.18
2022-09-24T11:37:39.865Z,16.38
2022-09-24T11:43:18.429Z,16.28
2022-09-24T11:48:19.843Z,16.28
2022-09-24T11:53:27.313Z,16.47
2022-09-24T11:58:32.154Z,16.38
2022-09-24T12:03:44.963Z,16.44
2022-09-24T12:08:57.055Z,16.44
2022-09-24T12:14:05.665Z,16.64
2022-09-24T12:19:21.398Z,16.62
2022-09-24T12:24:33.303Z,16.61
2022-09-24T12:30:18.226Z,16.79
2022-09-24T12:35:28.835Z,16.71
2022-09-24T12:40:41.424Z,16.85
2022-09-24T12:45:43.089Z,16.82
2022-09-24T12:50:56.635Z,16.99
2022-09-24T12:56:02.260Z,16.89
2022-09-24T13:01:25.103Z,17.24
2022-09-24T13:06:35.381Z,17.25
2022-09-24T13:11:37.592Z,17.12
2022-09-24T13:16:41.189Z,17.15
2022-09-24T13:21:43.970Z,17.01
2022-09-24T13:26:45.531Z,17.25
2022-09-24T13:31:51.137Z,17.27
2022-09-24T13:37:02.489Z,17.23
2022-09-24T13:42:31.596Z,17.09
2022-09-24T13:47:46.460Z,17.20
2022-09-24T13:53:04.586Z,17.41
2022-09-24T13:58:06.158Z,17.26
2022-09-24T14:03:19.240Z,17.20
2022-09-24T14:08:23.146Z,17.14
2022-09-24T14:13:25.104Z,17.42
2022-09-24T14:18:28.289Z,17.21
2022-09-24T14:23:34.203Z,17.16
2022-09-24T14:28:35.808Z,17.12
2022-09-24T14:33:37.774Z,17.11
2022-09-24T14:38:53.911Z,17.13
2022-09-24T14:44:06.134Z,17.14
2022-09-24T14:49:28.485Z,17.15
2022-09-24T14:54:42.562Z,17.16
2022-09-24T14:59:45.390Z,17.18
2022-09-24T15:04:50.122Z,17.15
2022-09-24T15:09:53.999Z,17.19
2022-09-24T15:15:00.812Z,17.17
2022-09-24T15:20:04.047Z,17.20
2022-09-24T15:25:06.103Z,17.16
2022-09-24T15:30:10.470Z,17.14
2022-09-24T15:35:15.015Z,17.21
2022-09-24T15:40:24.738Z,17.15
2022-09-24T15:45:26.373Z,17.09
2022-09-24T15:50:27.942Z,17.06
2022-09-24T15:55:30.962Z,17.10
2022-09-24T16:00:33.256Z,17.05
2022-09-24T16:05:34.864Z,17.00
2022-09-24T16:10:36.739Z,16.97
2022-09-24T16:15:38.795Z,16.93
2022-09-24T16:20:40.853Z,16.88
2022-09-24T16:25:49.542Z,16.82
2022-09-24T16:30:51.265Z,16.75
2022-09-24T16:35:52.897Z,16.72
2022-09-24T16:41:00.715Z,16.69
2022-09-24T16:46:08.220Z,16.64
2022-09-24T16:51:11.594Z,16.62
2022-09-24T16:56:15.290Z,16.52
2022-09-24T17:01:19.268Z,16.50
2022-09-24T17:06:23.422Z,16.45
2022-09-24T17:11:24.959Z,16.40
2022-09-24T17:16:27.167Z,16.33
2022-09-24T17:21:28.984Z,16.35
2022-09-24T17:26:30.594Z,16.28
2022-09-24T17:31:32.193Z,16.24
2022-09-24T17:36:34.537Z,16.22
2022-09-24T17:41:36.175Z,16.13
2022-09-24T17:46:37.979Z,16.07
2022-09-24T17:51:39.788Z,16.01
2022-09-24T17:56:41.900Z,15.99
2022-09-24T18:01:44.241Z,15.95
2022-09-24T18:06:46.862Z,15.80
2022-09-24T18:11:50.215Z,15.81
2022-09-24T18:16:52.028Z,15.65
2022-09-24T18:21:54.588Z,15.67
2022-09-24T18:26:56.428Z,15.75
2022-09-24T18:31:57.957Z,15.55
2022-09-24T18:36:59.452Z,15.60
2022-09-24T18:42:01.034Z,15.42
2022-09-24T18:47:02.904Z,15.39
2022-09-24T18:52:04.481Z,15.24
2022-09-24T18:57:06.042Z,15.12
2022-09-24T19:02:08.466Z,15.13
2022-09-24T19:07:10.168Z,15.01
2022-09-24T19:12:12.743Z,14.94
2022-09-24T19:17:14.768Z,14.96
2022-09-24T19:22:16.310Z,14.92
2022-09-24T19:27:17.812Z,14.72
2022-09-24T19:32:19.318Z,14.68
2022-09-24T19:37:20.846Z,14.76
2022-09-24T19:42:22.907Z,14.68
2022-09-24T19:47:25.669Z,14.49
2022-09-24T19:52:27.213Z,14.60
2022-09-24T19:57:28.799Z,14.53
2022-09-24T20:02:30.414Z,14.30
2022-09-24T20:07:32.161Z,14.22
2022-09-24T20:12:34.764Z,14.16
2022-09-24T20:17:36.312Z,14.21
2022-09-24T20:22:37.975Z,14.30
2022-09-24T20:27:51.617Z,14.27
2022-09-24T20:32:53.101Z,14.18
2022-09-24T20:37:54.762Z,14.34
2022-09-24T20:42:56.300Z,14.27
2022-09-24T20:47:57.879Z,14.18
2022-09-24T20:52:59.431Z,14.07
2022-09-24T20:58:00.941Z,13.91
2022-09-24T21:03:15.458Z,14.06
2022-09-24T21:08:21.709Z,14.06
2022-09-24T21:13:24.522Z,14.11
2022-09-24T21:18:31.057Z,13.84
2022-09-24T21:23:40.077Z,13.86
2022-09-24T21:28:43.494Z,13.92
2022-09-24T21:33:46.911Z,13.87
2022-09-24T21:38:55.870Z,13.70
2022-09-24T21:43:57.848Z,13.68
2022-09-24T21:49:00.553Z,13.64
2022-09-24T21:54:04.159Z,13.65
2022-09-24T21:59:38.111Z,13.56
2022-09-24T22:04:39.699Z,13.41
2022-09-24T22:09:41.243Z,13.45
2022-09-24T22:14:44.842Z,13.44
2022-09-24T22:19:47.218Z,13.14
2022-09-24T22:24:48.806Z,13.54
2022-09-24T22:29:50.351Z,12.96
2022-09-24T22:35:10.597Z,13.00
2022-09-24T22:40:12.401Z,13.42
2022-09-24T22:45:14.017Z,13.13
2022-09-24T22:50:15.535Z,12.71
2022-09-24T22:55:17.067Z,12.94
2022-09-24T23:00:18.907Z,13.16
2022-09-24T23:05:20.487Z,13.04
2022-09-24T23:10:22.618Z,13.06
2022-09-24T23:15:25.462Z,13.11
2022-09-24T23:20:27.328Z,13.23
2022-09-24T23:25:28.881Z,12.96
2022-09-24T23:30:31.406Z,13.00
2022-09-24T23:35:32.932Z,13.06
2022-09-24T23:40:34.554Z,12.99
2022-09-24T23:45:36.173Z,13.02
2022-09-24T23:50:38.095Z,13.04
2022-09-24T23:55:42.601Z,12.57
